Time;durP1;ratioP1;P1;durP2;ratioP2;P2;SDS_P1;SDS_P2;PMS_P1;PMS_P2;Temp;Humidity;BMP_temperature;BMP_pressure;BME280_temperature;BME280_humidity;BME280_pressure;Samples;Min_cycle;Max_cycle;Signal;HPM_P1;HPM_P2
2022/11/01 00:02:54;;;;;;;62.05;46.80;;;;;;;10.21;100.00;99069.98;2135029;83;21520;-87
2022/11/01 00:05:54;;;;;;;60.05;43.68;;;;;;;10.19;100.00;99070.64;2190801;80;20933;-88
2022/11/01 00:08:55;;;;;;;61.88;44.73;;;;;;;10.14;100.00;99071.13;2187628;80;21032;-87
2022/11/01 00:11:56;;;;;;;80.28;48.73;;;;;;;10.19;100.00;99069.34;2133541;83;20978;-89
2022/11/01 00:14:57;;;;;;;59.77;43.90;;;;;;;10.20;100.00;99071.78;2189857;81;21378;-88
2022/11/01 00:17:57;;;;;;;56.35;42.05;;;;;;;10.20;100.00;99068.34;2191518;81;20945;-86
2022/11/01 00:20:58;;;;;;;64.22;44.15;;;;;;;10.20;100.00;99077.02;2120227;83;20989;-87
2022/11/01 00:23:59;;;;;;;51.25;38.73;;;;;;;10.21;100.00;99069.98;2189088;80;20957;-87
2022/11/01 00:27:00;;;;;;;68.15;48.15;;;;;;;10.21;100.00;99072.09;2186903;80;21049;-87
2022/11/01 00:30:01;;;;;;;57.33;41.33;;;;;;;10.18;100.00;99065.91;2190271;80;21437;-87
2022/11/01 00:33:01;;;;;;;55.58;40.83;;;;;;;10.17;100.00;99066.08;2184747;80;21028;-87
2022/11/01 00:36:02;;;;;;;62.10;41.75;;;;;;;10.15;100.00;99063.63;2131607;83;21018;-87
2022/11/01 00:39:03;;;;;;;57.98;38.73;;;;;;;10.11;100.00;99058.39;2187339;80;21008;-88
2022/11/01 00:42:04;;;;;;;44.38;35.68;;;;;;;10.03;100.00;99054.98;2189363;81;21440;-87
2022/11/01 00:45:04;;;;;;;46.65;34.70;;;;;;;10.01;100.00;99054.34;2186817;80;20944;-87
2022/11/01 00:48:05;;;;;;;51.75;38.73;;;;;;;9.93;100.00;99054.67;2185532;80;21499;-87
2022/11/01 00:51:06;;;;;;;57.03;41.73;;;;;;;9.86;100.00;99050.27;2184963;80;21567;-89
2022/11/01 00:54:06;;;;;;;47.67;37.53;;;;;;;9.88;100.00;99045.72;2185895;80;21485;-88
2022/11/01 00:57:07;;;;;;;49.85;34.98;;;;;;;9.92;100.00;99048.31;2169116;82;20988;-87
2022/11/01 01:00:08;;;;;;;53.52;39.70;;;;;;;9.93;100.00;99046.02;2125635;83;21024;-86
2022/11/01 01:03:09;;;;;;;55.83;37.93;;;;;;;9.90;100.00;99035.90;2173772;82;21519;-89
2022/11/01 01:06:09;;;;;;;52.03;39.78;;;;;;;9.87;100.00;99041.44;2172318;82;21080;-88
2022/11/01 01:09:10;;;;;;;61.00;43.98;;;;;;;9.87;100.00;99038.33;2118115;83;20986;-86
2022/11/01 01:12:11;;;;;;;60.50;42.62;;;;;;;9.87;100.00;99036.20;2125521;82;20989;-85
2022/11/01 01:15:12;;;;;;;65.67;46.68;;;;;;;9.88;100.00;99035.25;2128710;83;21005;-84
2022/11/01 01:18:12;;;;;;;77.87;55.17;;;;;;;9.86;100.00;99024.94;2115847;84;20993;-87
2022/11/01 01:21:14;;;;;;;76.40;48.55;;;;;;;9.82;100.00;99018.42;2165276;81;20981;-88
2022/11/01 01:24:15;;;;;;;54.25;39.05;;;;;;;9.77;100.00;99012.86;2176014;82;21096;-87
2022/11/01 01:27:15;;;;;;;49.05;34.63;;;;;;;9.69;100.00;99006.34;2169382;82;21033;-84
2022/11/01 01:30:16;;;;;;;53.42;35.25;;;;;;;9.65;100.00;99008.97;2128117;83;20989;-87
2022/11/01 01:33:17;;;;;;;49.53;35.43;;;;;;;9.66;100.00;99010.60;2172931;82;20946;-88
2022/11/01 01:36:18;;;;;;;63.58;45.90;;;;;;;9.66;100.00;99006.19;2131217;83;20989;-87
2022/11/01 01:39:18;;;;;;;77.50;56.55;;;;;;;9.62;100.00;98996.24;2132310;83;21005;-88
2022/11/01 01:42:19;;;;;;;57.13;43.25;;;;;;;9.64;100.00;98992.96;2132970;83;21024;-88
2022/11/01 01:45:20;;;;;;;51.02;38.35;;;;;;;9.63;100.00;98993.45;2127319;83;20961;-87
2022/11/01 01:48:21;;;;;;;52.50;37.95;;;;;;;9.64;100.00;98991.16;2123533;83;20938;-87
2022/11/01 01:51:21;;;;;;;45.60;36.05;;;;;;;9.65;100.00;98994.59;2125274;83;21060;-87
2022/11/01 01:54:22;;;;;;;43.78;32.53;;;;;;;9.66;100.00;98991.80;2125058;83;21062;-87
2022/11/01 01:57:23;;;;;;;55.40;44.10;;;;;;;9.68;100.00;98985.09;2114253;83;20969;-89
2022/11/01 02:00:24;;;;;;;44.50;35.05;;;;;;;9.64;100.00;98976.78;2113691;83;21032;-87
2022/11/01 02:03:24;;;;;;;42.40;30.90;;;;;;;9.56;100.00;98974.67;2168857;81;21392;-86
2022/11/01 02:06:25;;;;;;;40.65;29.80;;;;;;;9.51;100.00;98972.58;2186538;80;21110;-88
2022/11/01 02:09:26;;;;;;;36.65;28.20;;;;;;;9.51;100.00;98966.50;2169050;80;21417;-86
2022/11/01 02:12:27;;;;;;;37.58;27.42;;;;;;;9.50;100.00;98970.10;2177106;81;20901;-87
2022/11/01 02:15:27;;;;;;;37.28;27.25;;;;;;;9.46;100.00;98963.59;2176715;81;21004;-87
2022/11/01 02:18:28;;;;;;;42.60;33.92;;;;;;;9.44;100.00;98959.84;2174675;81;20941;-87
2022/11/01 02:21:29;;;;;;;49.03;38.65;;;;;;;9.42;100.00;98961.81;2121027;83;21441;-87
2022/11/01 02:24:30;;;;;;;51.13;39.83;;;;;;;9.37;100.00;98958.38;2133858;83;21032;-87
2022/11/01 02:27:30;;;;;;;44.85;33.98;;;;;;;9.30;100.00;98952.17;2108263;84;20947;-87
2022/11/01 02:30:31;;;;;;;39.25;30.32;;;;;;;9.28;100.00;98954.14;2176586;80;20938;-87
2022/11/01 02:33:32;;;;;;;50.05;39.38;;;;;;;9.28;100.00;98953.33;2117633;83;21010;-86
2022/11/01 02:36:33;;;;;;;52.73;41.75;;;;;;;9.27;100.00;98947.28;2172581;82;21475;-87
2022/11/01 02:39:33;;;;;;;46.40;38.40;;;;;;;9.24;100.00;98946.81;2172498;82;21469;-86
2022/11/01 02:42:34;;;;;;;53.95;44.40;;;;;;;9.20;100.00;98941.57;2173349;82;20936;-87
2022/11/01 02:45:35;;;;;;;44.50;36.48;;;;;;;9.17;100.00;98945.83;2176366;82;20960;-87
2022/11/01 02:48:35;;;;;;;48.10;38.28;;;;;;;9.18;100.00;98939.63;2173060;82;20981;-88
2022/11/01 02:51:36;;;;;;;42.78;35.13;;;;;;;9.22;100.00;98942.22;2121590;83;21074;-87
2022/11/01 02:54:37;;;;;;;40.12;32.33;;;;;;;9.30;100.00;98944.82;2124595;82;20957;-87
2022/11/01 02:57:37;;;;;;;41.80;36.10;;;;;;;9.32;100.00;98944.97;2169822;81;21024;-86
2022/11/01 03:00:38;;;;;;;37.80;31.73;;;;;;;9.32;100.00;98941.55;2168414;82;20931;-86
2022/11/01 03:03:39;;;;;;;38.92;29.95;;;;;;;9.31;100.00;98952.98;2162831;82;21466;-88
2022/11/01 03:06:40;;;;;;;38.50;30.27;;;;;;;9.27;100.00;98957.73;2161790;82;20950;-87
2022/11/01 03:09:40;;;;;;;40.45;31.97;;;;;;;9.23;100.00;98951.69;2164390;82;20926;-87
2022/11/01 03:12:41;;;;;;;34.53;27.25;;;;;;;9.15;100.00;98954.33;2177589;81;20963;-86
2022/11/01 03:15:42;;;;;;;27.27;22.25;;;;;;;9.07;100.00;98941.59;2170561;82;21536;-85
2022/11/01 03:18:43;;;;;;;26.85;20.95;;;;;;;8.99;100.00;98935.06;2126933;83;20969;-85
2022/11/01 03:21:43;;;;;;;27.77;23.18;;;;;;;8.88;100.00;98938.01;2176795;82;20970;-86
2022/11/01 03:24:44;;;;;;;39.33;31.17;;;;;;;8.82;100.00;98937.34;2174719;82;20956;-86
2022/11/01 03:27:45;;;;;;;34.50;28.77;;;;;;;8.76;100.00;98935.38;2175712;81;20921;-86
2022/11/01 03:30:46;;;;;;;28.17;22.67;;;;;;;8.75;100.00;98935.05;2168680;81;20967;-86
2022/11/01 03:33:46;;;;;;;26.40;22.90;;;;;;;8.65;100.00;98933.90;2166180;81;20926;-88
2022/11/01 03:36:47;;;;;;;31.55;24.98;;;;;;;8.65;100.00;98937.00;2191672;80;20934;-87
2022/11/01 03:39:48;;;;;;;33.55;27.73;;;;;;;8.67;100.00;98930.62;2186626;80;21028;-86
2022/11/01 03:42:48;;;;;;;34.73;28.50;;;;;;;8.69;100.00;98928.70;2204974;80;20906;-86
2022/11/01 03:45:49;;;;;;;31.45;25.52;;;;;;;8.69;100.00;98927.88;2181741;80;21005;-87
2022/11/01 03:48:50;;;;;;;32.85;27.48;;;;;;;8.70;100.00;98926.91;2183301;81;21032;-86
2022/11/01 03:51:51;;;;;;;28.12;23.92;;;;;;;8.74;100.00;98934.23;2179380;80;20982;-86
2022/11/01 03:54:51;;;;;;;27.37;22.20;;;;;;;8.78;100.00;98942.08;2132248;83;21075;-87
2022/11/01 03:57:52;;;;;;;26.05;21.12;;;;;;;8.79;100.00;98945.02;2144438;82;21050;-87
2022/11/01 04:00:54;;;;;;;25.75;20.35;;;;;;;8.78;100.00;98935.55;2171085;82;22157;-87
2022/11/01 04:03:55;;;;;;;21.62;19.05;;;;;;;8.74;100.00;98934.72;2173092;82;20977;-82
2022/11/01 04:06:56;;;;;;;24.92;20.02;;;;;;;8.64;100.00;98930.97;2168585;82;20950;-85
2022/11/01 04:09:56;;;;;;;25.72;20.55;;;;;;;8.55;100.00;98936.66;2125084;83;20922;-84
2022/11/01 04:12:57;;;;;;;25.52;20.57;;;;;;;8.48;100.00;98937.45;2169900;82;21005;-87
2022/11/01 04:22:36;;;;;;;26.68;21.02;;;;;;;8.26;100.00;98926.63;2169200;82;21512;-85
2022/11/01 04:25:37;;;;;;;21.45;19.20;;;;;;;8.23;100.00;98925.66;2173075;82;20965;-87
2022/11/01 04:28:37;;;;;;;22.02;19.37;;;;;;;8.18;100.00;98922.69;2174357;82;21089;-85
2022/11/01 04:31:38;;;;;;;32.67;26.20;;;;;;;8.13;100.00;98922.83;2172075;82;20918;-86
2022/11/01 04:34:42;;;;;;;31.73;21.33;;;;;;;8.01;100.00;98928.02;2110585;83;20943;-85
2022/11/01 04:37:43;;;;;;;24.00;19.15;;;;;;;7.96;100.00;98920.19;2130033;83;21124;-88
2022/11/01 04:40:43;;;;;;;26.05;20.65;;;;;;;7.94;100.00;98915.59;2122189;83;21042;-87
2022/11/01 04:43:44;;;;;;;26.45;20.95;;;;;;;7.93;100.00;98915.27;2128205;83;21025;-87
2022/11/01 04:46:45;;;;;;;30.12;23.38;;;;;;;7.93;100.00;98916.58;2124630;83;21028;-87
2022/11/01 04:49:46;;;;;;;43.68;34.60;;;;;;;7.95;100.00;98915.11;2113186;83;21033;-86
2022/11/01 04:52:46;;;;;;;44.35;36.58;;;;;;;7.97;100.00;98917.09;2125539;83;21014;-86
2022/11/01 04:55:47;;;;;;;33.70;26.35;;;;;;;7.97;100.00;98919.22;2137444;83;21000;-87
2022/11/01 04:58:48;;;;;;;29.07;23.75;;;;;;;7.98;100.00;98918.23;2132693;83;21012;-86
2022/11/01 05:01:49;;;;;;;30.15;23.38;;;;;;;8.01;100.00;98923.61;2132989;83;20926;-87
2022/11/01 05:04:49;;;;;;;26.80;20.12;;;;;;;8.01;100.00;98926.22;2123971;83;20997;-85
2022/11/01 05:07:50;;;;;;;23.10;19.02;;;;;;;8.05;100.00;98922.34;2132801;83;21033;-88
2022/11/01 05:10:51;;;;;;;24.77;19.52;;;;;;;8.08;100.00;98917.29;2129568;83;21050;-87
2022/11/01 05:13:52;;;;;;;25.40;18.80;;;;;;;8.06;100.00;98914.03;2123754;83;20953;-86
2022/11/01 05:16:52;;;;;;;23.80;19.48;;;;;;;8.06;100.00;98914.84;2128851;83;20976;-84
2022/11/01 05:19:53;;;;;;;22.22;19.00;;;;;;;8.06;100.00;98908.33;2133327;83;20977;-86
2022/11/01 05:22:54;;;;;;;21.62;17.12;;;;;;;8.06;100.00;98908.33;2129154;83;20990;-86
2022/11/01 05:25:55;;;;;;;23.67;18.05;;;;;;;8.13;100.00;98913.20;2140147;83;20915;-86
2022/11/01 05:28:55;;;;;;;24.12;18.45;;;;;;;8.15;100.00;98911.77;2140522;83;20989;-86
2022/11/01 05:31:56;;;;;;;21.35;17.17;;;;;;;8.12;100.00;98912.89;2080493;85;20915;-86
2022/11/01 05:34:57;;;;;;;21.27;16.73;;;;;;;8.08;100.00;98907.67;2118816;83;20927;-82
2022/11/01 05:38:03;;;;;;;21.80;17.40;;;;;;;7.98;100.00;98901.77;2087652;84;21101;-83
2022/11/01 05:41:03;;;;;;;25.17;17.02;;;;;;;7.88;100.00;98896.70;2074973;86;21001;-83
2022/11/01 05:44:04;;;;;;;21.17;16.77;;;;;;;7.80;100.00;98899.27;2064485;86;21034;-87
2022/11/01 05:47:04;;;;;;;23.42;18.48;;;;;;;7.77;100.00;98899.56;2070307;86;20938;-84
2022/11/01 05:50:05;;;;;;;39.53;29.63;;;;;;;7.73;100.00;98903.95;2063912;85;20993;-85
2022/11/01 05:53:06;;;;;;;33.42;22.05;;;;;;;7.70;100.00;98899.39;2116353;82;21120;-82
2022/11/01 05:56:07;;;;;;;30.00;21.30;;;;;;;7.68;100.00;98894.83;2100537;83;20954;-83
2022/11/01 05:59:07;;;;;;;29.70;21.62;;;;;;;7.64;100.00;98894.80;2097716;84;21000;-85
2022/11/01 06:02:08;;;;;;;32.93;25.20;;;;;;;7.64;100.00;98901.80;2142901;82;20974;-87
2022/11/01 06:05:10;;;;;;;30.95;23.40;;;;;;;7.63;100.00;98909.29;2118045;82;21449;-82
2022/11/01 06:08:10;;;;;;;32.05;22.27;;;;;;;7.64;100.00;98911.73;2117445;82;21012;-83
2022/11/01 06:11:11;;;;;;;26.87;21.27;;;;;;;7.68;100.00;98906.56;2125006;82;21040;-83
2022/11/01 06:14:12;;;;;;;22.10;17.57;;;;;;;7.75;100.00;98900.21;2150801;82;21092;-80
2022/11/01 06:17:15;;;;;;;22.93;17.00;;;;;;;7.79;100.00;98896.34;2124885;82;20997;-80
2022/11/01 06:20:15;;;;;;;18.48;15.63;;;;;;;7.82;100.00;98894.70;2144574;82;20974;-81
2022/11/01 06:23:16;;;;;;;17.48;14.53;;;;;;;7.91;100.00;98900.28;2136825;82;20929;-82
2022/11/01 06:26:17;;;;;;;21.25;16.35;;;;;;;7.95;100.00;98898.16;2147385;81;20944;-83
2022/11/01 06:29:18;;;;;;;23.42;18.27;;;;;;;8.00;100.00;98898.52;2158506;82;20975;-82
2022/11/01 06:32:18;;;;;;;19.65;16.27;;;;;;;8.05;100.00;98897.56;2160716;82;20995;-83
2022/11/01 06:35:19;;;;;;;18.35;15.13;;;;;;;8.12;100.00;98901.64;2123983;82;21261;-85
2022/11/01 06:38:20;;;;;;;17.07;13.80;;;;;;;8.21;100.00;98907.20;2157973;82;21007;-84
2022/11/01 06:41:23;;;;;;;15.20;13.55;;;;;;;8.25;100.00;98910.66;2105240;85;21120;-82
2022/11/01 06:44:24;;;;;;;18.15;14.03;;;;;;;8.28;100.00;98906.90;2105686;85;21030;-83
2022/11/01 06:47:25;;;;;;;14.83;13.32;;;;;;;8.31;100.00;98897.93;2105821;85;21026;-81
2022/11/01 06:50:26;;;;;;;14.23;12.50;;;;;;;8.32;100.00;98900.86;2109785;82;21121;-81
2022/11/01 06:53:26;;;;;;;14.05;12.55;;;;;;;8.33;100.00;98901.22;2168508;81;21466;-82
2022/11/01 06:56:27;;;;;;;15.70;13.15;;;;;;;8.32;100.00;98893.03;2128819;84;21057;-82
2022/11/01 06:59:28;;;;;;;13.55;12.15;;;;;;;8.32;100.00;98900.41;2098645;83;21048;-83
2022/11/01 07:02:28;;;;;;;17.62;12.50;;;;;;;8.40;100.00;98899.11;2091238;84;21029;-83
2022/11/01 07:05:29;;;;;;;13.72;12.33;;;;;;;8.46;100.00;98898.48;2121068;83;21107;-81
2022/11/01 07:08:30;;;;;;;13.70;12.18;;;;;;;8.52;100.00;98903.06;2117176;84;21039;-82
2022/11/01 07:11:31;;;;;;;15.08;12.43;;;;;;;8.66;100.00;98906.81;2117029;84;21044;-84
2022/11/01 07:14:31;;;;;;;18.50;13.78;;;;;;;8.79;100.00;98899.82;2116921;84;21016;-84
2022/11/01 07:17:32;;;;;;;15.10;13.60;;;;;;;8.90;100.00;98900.79;2117464;82;21059;-83
2022/11/01 07:20:40;;;;;;;14.15;12.50;;;;;;;9.02;100.00;98894.73;2123405;84;21005;-84
2022/11/01 07:23:38;;;;;;;15.50;13.08;;;;;;;9.11;100.00;98897.66;2104386;83;21105;-82
2022/11/01 07:26:39;;;;;;;14.53;12.73;;;;;;;9.17;100.00;98907.45;2108084;83;20958;-83
2022/11/01 07:29:40;;;;;;;15.95;13.20;;;;;;;9.23;100.00;98907.27;2107276;83;21524;-83
2022/11/01 07:32:41;;;;;;;14.38;12.88;;;;;;;9.44;100.00;98908.88;2103338;85;21042;-87
2022/11/01 07:35:42;;;;;;;13.88;12.33;;;;;;;9.44;100.00;98908.88;2103876;85;21591;-85
2022/11/01 07:38:43;;;;;;;15.20;12.33;;;;;;;9.52;100.00;98906.24;2105608;84;21092;-82
2022/11/01 07:41:43;;;;;;;13.83;12.18;;;;;;;9.59;100.00;98905.05;2109913;84;21017;-84
2022/11/01 07:44:44;;;;;;;15.55;12.80;;;;;;;9.66;100.00;98908.14;2109924;83;20938;-86
2022/11/01 07:47:45;;;;;;;13.43;11.93;;;;;;;9.79;100.00;98914.66;2107495;84;21489;-89
2022/11/01 07:50:46;;;;;;;18.15;14.58;;;;;;;9.95;100.00;98917.98;2114132;84;20996;-85
2022/11/01 07:53:46;;;;;;;17.50;14.13;;;;;;;10.00;100.00;98929.27;2092719;83;21562;-90
2022/11/01 07:56:47;;;;;;;17.15;14.43;;;;;;;10.12;100.00;98937.55;2138820;83;21059;-89
2022/11/01 07:59:48;;;;;;;19.85;16.93;;;;;;;10.28;100.00;98932.27;2154395;82;21480;-89
2022/11/01 08:02:49;;;;;;;17.17;15.30;;;;;;;10.39;100.00;98924.02;2154532;82;21447;-89
2022/11/01 08:05:50;;;;;;;21.65;17.37;;;;;;;10.48;100.00;98930.02;2151977;82;21009;-88
2022/11/01 08:08:50;;;;;;;23.60;17.05;;;;;;;10.55;100.00;98932.27;2135316;82;21461;-88
2022/11/01 08:11:51;;;;;;;24.18;18.30;;;;;;;10.69;100.00;98930.19;2135126;82;21025;-89
2022/11/01 08:14:52;;;;;;;30.75;20.30;;;;;;;10.80;100.00;98922.44;2135128;82;21032;-90
2022/11/01 08:17:53;;;;;;;22.95;18.05;;;;;;;10.90;100.00;98923.01;2135172;82;21001;-87
2022/11/01 08:20:53;;;;;;;24.43;19.55;;;;;;;10.98;100.00;98914.27;2135152;83;21009;-88
2022/11/01 08:23:54;;;;;;;28.38;22.00;;;;;;;11.14;100.00;98917.22;2134956;82;20978;-88
2022/11/01 08:26:55;;;;;;;31.73;22.50;;;;;;;11.31;100.00;98916.89;2135780;82;20978;-85
2022/11/01 08:29:56;;;;;;;31.07;22.15;;;;;;;11.38;100.00;98922.23;2136289;83;21482;-87
2022/11/01 08:32:57;;;;;;;33.08;24.05;;;;;;;11.46;100.00;98916.91;2136330;83;20966;-89
2022/11/01 08:35:58;;;;;;;39.78;27.15;;;;;;;11.47;100.00;98917.23;2135420;82;20986;-87
2022/11/01 08:38:58;;;;;;;33.90;23.98;;;;;;;11.58;100.00;98914.15;2135018;82;20958;-89
2022/11/01 08:41:59;;;;;;;30.20;23.02;;;;;;;11.71;100.00;98906.16;2135188;83;21492;-89
2022/11/01 08:45:00;;;;;;;34.10;24.65;;;;;;;11.75;100.00;98920.53;2135080;82;21060;-87
2022/11/01 08:48:02;;;;;;;40.67;28.30;;;;;;;11.80;100.00;98916.41;2135354;82;21446;-89
2022/11/01 08:51:04;;;;;;;37.67;27.20;;;;;;;11.92;100.00;98924.63;2134952;83;21085;-89
2022/11/01 08:54:05;;;;;;;36.08;28.73;;;;;;;12.14;100.00;98923.67;2155386;82;21560;-89
2022/11/01 08:57:05;;;;;;;35.92;26.62;;;;;;;12.29;100.00;98915.77;2178391;82;21004;-88
2022/11/01 09:00:06;;;;;;;39.55;29.00;;;;;;;12.37;100.00;98918.78;2136261;83;21133;-87
2022/11/01 09:03:07;;;;;;;31.25;23.73;;;;;;;12.42;100.00;98917.20;2177840;81;20946;-88
2022/11/01 09:06:08;;;;;;;36.88;27.15;;;;;;;12.44;100.00;98922.30;2136159;83;21033;-88
2022/11/01 09:09:11;;;;;;;40.10;27.22;;;;;;;12.44;100.00;98931.49;2177490;81;21008;-89
2022/11/01 09:12:12;;;;;;;41.13;29.52;;;;;;;12.49;100.00;98936.48;2180584;82;21020;-86
2022/11/01 09:15:13;;;;;;;41.75;30.35;;;;;;;12.56;100.00;98939.19;2139312;83;21037;-91
2022/11/01 09:18:14;;;;;;;35.85;26.00;;;;;;;12.52;100.00;98937.91;2178609;81;21008;-87
2022/11/01 09:21:15;;;;;;;36.53;28.07;;;;;;;12.49;100.00;98931.23;2136321;83;21036;-88
2022/11/01 09:24:17;;;;;;;35.73;26.82;;;;;;;12.42;100.00;98934.28;2177936;81;21005;-88
2022/11/01 09:27:17;;;;;;;44.95;30.20;;;;;;;12.42;100.00;98937.41;2181530;82;21049;-84
2022/11/01 09:30:18;;;;;;;41.40;28.85;;;;;;;12.42;100.00;98937.41;2138879;83;21000;-89
2022/11/01 09:33:22;;;;;;;37.85;29.05;;;;;;;12.38;100.00;98933.53;2178267;81;20988;-88
2022/11/01 09:36:22;;;;;;;37.48;27.87;;;;;;;12.33;100.00;98926.70;2136077;83;21088;-87
2022/11/01 09:39:23;;;;;;;37.58;28.05;;;;;;;12.34;100.00;98914.70;2146233;82;21103;-88
2022/11/01 09:42:24;;;;;;;35.13;26.68;;;;;;;12.43;100.00;98918.02;2136280;83;21020;-87
2022/11/01 09:45:24;;;;;;;33.18;25.90;;;;;;;12.55;100.00;98926.24;2177931;81;20970;-87
2022/11/01 09:48:25;;;;;;;35.13;26.85;;;;;;;12.63;100.00;98936.13;2136335;83;21074;-89
2022/11/01 09:51:27;;;;;;;35.75;27.37;;;;;;;12.61;100.00;98930.23;2177946;81;21008;-88
2022/11/01 09:54:27;;;;;;;30.80;23.95;;;;;;;12.58;100.00;98929.30;2138016;83;21065;-89
2022/11/01 09:57:28;;;;;;;33.25;25.50;;;;;;;12.54;100.00;98937.25;2171409;81;21506;-87
2022/11/01 10:00:29;;;;;;;35.95;26.75;;;;;;;12.55;100.00;98941.50;2139880;83;20997;-87
2022/11/01 10:03:32;;;;;;;36.30;25.35;;;;;;;12.60;100.00;98929.11;2174607;81;20981;-87
2022/11/01 10:06:34;;;;;;;33.95;25.20;;;;;;;12.80;100.00;98919.59;2139909;83;21069;-87
2022/11/01 10:09:35;;;;;;;35.80;25.77;;;;;;;13.03;100.00;98912.33;2174376;81;21561;-88
2022/11/01 10:12:36;;;;;;;32.15;26.30;;;;;;;13.21;100.00;98913.20;2139671;83;21013;-87
2022/11/01 10:15:37;;;;;;;34.25;25.57;;;;;;;13.37;100.00;98922.62;2174665;82;20958;-88
2022/11/01 10:18:38;;;;;;;30.02;22.77;;;;;;;13.57;100.00;98918.80;2139697;83;21053;-87
2022/11/01 10:21:41;;;;;;;31.35;23.87;;;;;;;13.77;100.00;98916.27;2174375;82;20993;-88
2022/11/01 10:24:41;;;;;;;31.07;23.60;;;;;;;13.93;100.00;98908.05;2139674;83;21501;-88
2022/11/01 10:27:42;;;;;;;28.40;21.77;;;;;;;14.01;100.00;98903.13;2174441;82;21037;-88
2022/11/01 10:30:45;;;;;;;34.80;25.12;;;;;;;14.11;100.00;98906.20;2139882;83;21009;-88
2022/11/01 10:33:45;;;;;;;32.75;23.98;;;;;;;13.96;100.00;98902.38;2174705;81;21029;-86
2022/11/01 10:36:46;;;;;;;33.08;22.70;;;;;;;13.96;100.00;98889.22;2139553;83;21005;-89
2022/11/01 10:39:47;;;;;;;30.57;23.75;;;;;;;13.97;100.00;98901.88;2174502;82;21080;-89
2022/11/01 10:42:48;;;;;;;32.78;22.77;;;;;;;13.92;100.00;98897.22;2139783;83;21011;-87
2022/11/01 10:45:49;;;;;;;28.12;22.00;;;;;;;13.94;100.00;98893.88;2174398;81;20973;-89
2022/11/01 10:48:50;;;;;;;30.75;21.68;;;;;;;13.91;100.00;98885.88;2139689;83;21080;-87
2022/11/01 10:51:50;;;;;;;31.77;22.30;;;;;;;13.83;100.00;98884.73;2174351;81;20993;-88
2022/11/01 10:54:51;;;;;;;32.17;24.43;;;;;;;13.91;100.00;98884.56;2139040;83;21083;-89
2022/11/01 10:57:52;;;;;;;34.13;24.87;;;;;;;14.05;100.00;98881.45;2174395;82;21052;-87
2022/11/01 11:00:53;;;;;;;35.70;27.17;;;;;;;14.17;100.00;98875.95;2139561;83;20969;-89
2022/11/01 11:03:54;;;;;;;38.23;28.65;;;;;;;14.28;100.00;98872.42;2174451;81;21043;-88
2022/11/01 11:06:55;;;;;;;34.08;26.45;;;;;;;14.36;100.00;98875.69;2139841;83;20965;-87
2022/11/01 11:09:56;;;;;;;38.35;26.80;;;;;;;14.42;100.00;98874.06;2174316;81;21515;-86
2022/11/01 11:12:57;;;;;;;32.42;24.85;;;;;;;14.49;100.00;98869.14;2141744;81;20985;-85
2022/11/01 11:16:03;;;;;;;32.15;25.02;;;;;;;14.58;100.00;98861.05;2177727;82;21012;-87
2022/11/01 11:19:04;;;;;;;35.78;25.08;;;;;;;14.68;100.00;98866.72;2140306;83;21024;-87
2022/11/01 11:22:05;;;;;;;34.20;25.40;;;;;;;14.72;100.00;98859.55;2174513;81;20981;-87
2022/11/01 11:25:06;;;;;;;32.83;24.20;;;;;;;14.84;100.00;98858.42;2140134;83;21032;-89
2022/11/01 11:28:06;;;;;;;30.95;23.42;;;;;;;14.94;100.00;98858.02;2177643;81;20950;-84
2022/11/01 11:31:07;;;;;;;35.83;25.62;;;;;;;14.92;100.00;98862.69;2143103;81;21020;-87
2022/11/01 11:34:08;;;;;;;35.23;23.85;;;;;;;15.01;100.00;98865.42;2175356;81;21008;-87
2022/11/01 11:37:09;;;;;;;32.70;24.15;;;;;;;15.15;100.00;98874.92;2139764;83;21041;-89
2022/11/01 11:40:10;;;;;;;40.90;24.87;;;;;;;15.34;100.00;98872.75;2174500;81;21068;-87
2022/11/01 11:43:10;;;;;;;32.75;23.35;;;;;;;15.41;100.00;98860.06;2139730;83;20981;-88
2022/11/01 11:46:11;;;;;;;29.85;22.95;;;;;;;15.44;100.00;98863.60;2174734;81;21570;-87
2022/11/01 11:49:12;;;;;;;27.07;20.85;;;;;;;15.46;100.00;98857.63;2140063;83;21032;-86
2022/11/01 11:52:13;;;;;;;30.12;22.85;;;;;;;15.36;100.00;98856.72;2174779;81;21029;-88
2022/11/01 11:55:14;;;;;;;26.12;20.95;;;;;;;15.22;100.00;98857.77;2136236;83;21096;-86
2022/11/01 11:58:14;;;;;;;19.62;17.25;;;;;;;15.23;100.00;98854.93;2133727;83;21064;-87
2022/11/01 12:01:16;;;;;;;25.70;19.77;;;;;;;15.25;100.00;98850.76;2125172;84;21053;-88
2022/11/01 12:04:18;;;;;;;21.82;17.37;;;;;;;15.22;100.00;98850.67;2107993;84;21492;-89
2022/11/01 12:07:18;;;;;;;22.40;19.45;;;;;;;15.26;100.00;98851.87;2107939;84;21596;-87
2022/11/01 12:10:19;;;;;;;21.25;17.77;;;;;;;15.41;100.00;98840.28;2107928;84;21016;-88
2022/11/01 12:13:20;;;;;;;23.00;18.07;;;;;;;15.41;100.00;98841.59;2107914;84;21574;-86
2022/11/01 12:16:23;;;;;;;22.20;16.30;;;;;;;15.40;100.00;98843.43;2108041;84;21009;-88
2022/11/01 12:19:23;;;;;;;16.73;14.75;;;;;;;15.45;100.00;98839.64;2108164;84;21024;-89
2022/11/01 12:22:24;;;;;;;16.97;14.23;;;;;;;15.50;100.00;98839.03;2107992;84;21044;-87
2022/11/01 12:25:25;;;;;;;17.57;13.68;;;;;;;15.54;100.00;98844.19;2108119;84;20989;-88
2022/11/01 12:28:26;;;;;;;16.67;14.83;;;;;;;15.57;100.00;98843.28;2108045;84;21611;-88
2022/11/01 12:31:27;;;;;;;14.75;12.95;;;;;;;15.56;100.00;98840.86;2107908;84;20989;-89
2022/11/01 12:34:29;;;;;;;14.45;13.00;;;;;;;15.55;100.00;98840.55;2108075;84;21012;-87
2022/11/01 12:37:30;;;;;;;16.02;12.60;;;;;;;15.50;100.00;98840.36;2109141;84;21594;-85
2022/11/01 12:40:31;;;;;;;14.15;12.50;;;;;;;15.52;100.00;98839.63;2110527;84;21041;-86
2022/11/01 12:43:32;;;;;;;14.25;12.75;;;;;;;15.58;100.00;98845.41;2109412;84;21048;-89
2022/11/01 12:46:33;;;;;;;13.90;12.45;;;;;;;15.56;100.00;98837.70;2108887;84;20977;-87
2022/11/01 12:49:34;;;;;;;14.13;12.60;;;;;;;15.54;100.00;98843.67;2109193;84;21066;-86
2022/11/01 12:52:35;;;;;;;13.62;11.93;;;;;;;15.52;100.00;98842.27;2108917;84;21029;-89
2022/11/01 12:55:36;;;;;;;16.12;11.97;;;;;;;15.49;100.00;98840.05;2089944;84;21108;-87
2022/11/01 12:58:37;;;;;;;13.48;11.10;;;;;;;15.48;100.00;98847.67;2080811;85;21005;-86
2022/11/01 13:01:38;;;;;;;13.40;11.75;;;;;;;15.46;100.00;98843.93;2080981;86;21033;-85
2022/11/01 13:04:39;;;;;;;14.58;12.15;;;;;;;15.46;100.00;98847.08;2080219;86;21565;-87
2022/11/01 13:07:40;;;;;;;13.65;12.23;;;;;;;15.43;100.00;98849.60;2079243;86;20997;-87
2022/11/01 13:10:42;;;;;;;13.00;11.57;;;;;;;15.42;100.00;98852.45;2079370;86;21022;-88
2022/11/01 13:13:43;;;;;;;15.75;12.28;;;;;;;15.41;100.00;98852.16;2080493;84;21073;-85
2022/11/01 13:16:44;;;;;;;13.30;12.00;;;;;;;15.39;100.00;98860.28;2083047;84;21013;-85
2022/11/01 13:19:44;;;;;;;14.70;11.55;;;;;;;15.39;100.00;98855.00;2079532;85;21521;-89
2022/11/01 13:22:45;;;;;;;13.30;11.38;;;;;;;15.35;100.00;98851.95;2079127;85;21021;-89
2022/11/01 13:25:46;;;;;;;13.88;11.73;;;;;;;15.34;100.00;98860.88;2079921;86;20994;-87
2022/11/01 13:28:47;;;;;;;14.23;12.25;;;;;;;15.36;100.00;98855.39;2080219;84;21027;-86
2022/11/01 13:31:48;;;;;;;15.35;11.25;;;;;;;15.33;100.00;98860.59;2082582;84;21076;-87
2022/11/01 13:34:49;;;;;;;15.38;11.40;;;;;;;15.36;100.00;98856.23;2080073;85;20982;-89
2022/11/01 13:37:50;;;;;;;19.37;13.65;;;;;;;15.33;100.00;98853.98;2063227;85;21567;-89
2022/11/01 13:40:51;;;;;;;13.83;12.28;;;;;;;15.29;100.00;98854.11;2150463;83;21005;-89
2022/11/01 13:43:51;;;;;;;12.95;11.68;;;;;;;15.28;100.00;98848.54;2154289;82;21004;-88
2022/11/01 13:46:52;;;;;;;13.85;12.37;;;;;;;15.27;100.00;98850.87;2148775;82;21048;-89
2022/11/01 13:49:53;;;;;;;15.05;12.58;;;;;;;15.24;100.00;98851.78;2134807;82;20990;-88
2022/11/01 13:52:54;;;;;;;15.08;13.53;;;;;;;15.22;100.00;98855.95;2135051;82;21013;-87
2022/11/01 13:55:55;;;;;;;15.48;13.00;;;;;;;15.19;100.00;98855.56;2161903;82;21005;-88